createdAt,value
2019-06-08T00:00:20.819Z,28.10
2019-06-08T00:02:51.341Z,28.10
2019-06-08T00:05:23.024Z,28.10
2019-06-08T00:07:53.572Z,28.00
2019-06-08T00:10:25.737Z,28.00
2019-06-08T00:12:56.018Z,28.00
2019-06-08T00:15:26.366Z,28.10
2019-06-08T00:17:59.345Z,28.00
2019-06-08T00:20:28.845Z,28.00
2019-06-08T00:23:00.354Z,28.00
2019-06-08T00:25:30.797Z,28.00
2019-06-08T00:28:01.203Z,28.00
2019-06-08T00:30:32.826Z,28.00
2019-06-08T00:33:03.330Z,28.00
2019-06-08T00:35:33.711Z,28.00
2019-06-08T00:38:04.078Z,28.00
2019-06-08T00:40:34.544Z,28.00
2019-06-08T00:43:05.143Z,28.00
2019-06-08T00:45:35.473Z,28.00
2019-06-08T00:48:05.808Z,28.00
2019-06-08T00:50:36.138Z,28.00
2019-06-08T00:53:06.510Z,27.90
2019-06-08T00:55:36.870Z,27.90
2019-06-08T00:58:07.242Z,27.90
2019-06-08T01:00:37.549Z,28.00
2019-06-08T01:03:08.005Z,27.90
2019-06-08T01:05:38.492Z,27.90
2019-06-08T01:08:08.907Z,27.90
2019-06-08T01:10:39.256Z,27.90
2019-06-08T01:13:09.696Z,27.90
2019-06-08T01:15:40.186Z,27.90
2019-06-08T01:18:10.547Z,27.90
2019-06-08T01:20:41.009Z,27.90
2019-06-08T01:23:11.333Z,27.90
2019-06-08T01:25:41.728Z,27.90
2019-06-08T01:28:12.063Z,27.90
2019-06-08T01:30:42.459Z,27.80
2019-06-08T01:33:12.980Z,27.90
2019-06-08T01:35:43.268Z,27.80
2019-06-08T01:38:13.702Z,27.80
2019-06-08T01:40:43.983Z,27.80
2019-06-08T01:43:14.512Z,27.80
2019-06-08T01:45:44.943Z,27.80
2019-06-08T01:48:20.089Z,27.80
2019-06-08T01:50:47.578Z,27.80
2019-06-08T01:53:18.201Z,27.80
2019-06-08T01:55:48.657Z,27.80
2019-06-08T01:58:19.181Z,27.80
2019-06-08T02:00:49.545Z,27.80
2019-06-08T02:03:20.064Z,27.80
2019-06-08T02:05:50.578Z,27.80
2019-06-08T02:08:21.076Z,27.80
2019-06-08T02:10:51.508Z,27.80
2019-06-08T02:13:21.954Z,27.80
2019-06-08T02:15:52.411Z,27.80
2019-06-08T02:18:36.447Z,27.70
2019-06-08T02:20:54.704Z,27.70
2019-06-08T02:23:25.253Z,27.70
2019-06-08T02:25:55.752Z,27.70
2019-06-08T02:28:27.357Z,27.80
2019-06-08T02:30:57.854Z,27.70
2019-06-08T02:33:28.400Z,27.70
2019-06-08T02:35:59.392Z,27.70
2019-06-08T02:38:30.400Z,27.70
2019-06-08T02:41:01.861Z,27.70
2019-06-08T02:43:33.324Z,27.70
2019-06-08T02:46:03.981Z,27.70
2019-06-08T02:48:37.259Z,27.70
2019-06-08T02:51:06.462Z,27.70
2019-06-08T02:53:38.219Z,27.70
2019-06-08T02:56:08.987Z,27.60
2019-06-08T02:58:40.780Z,27.60
2019-06-08T03:01:11.346Z,27.70
2019-06-08T03:03:41.709Z,27.60
2019-06-08T03:06:12.159Z,27.70
2019-06-08T03:08:44.044Z,27.60
2019-06-08T03:11:14.733Z,27.60
2019-06-08T03:13:45.235Z,27.60
2019-06-08T03:16:15.720Z,27.60
2019-06-08T03:18:46.184Z,27.60
2019-06-08T03:21:16.611Z,27.60
2019-06-08T03:23:46.966Z,27.60
2019-06-08T03:26:17.376Z,27.60
2019-06-08T03:28:47.902Z,27.60
2019-06-08T03:31:18.385Z,27.60
2019-06-08T03:33:55.147Z,27.60
2019-06-08T03:36:20.985Z,27.50
2019-06-08T03:38:51.358Z,27.60
2019-06-08T03:41:21.941Z,27.50
2019-06-08T03:43:52.310Z,27.50
2019-06-08T03:46:22.839Z,27.50
2019-06-08T03:48:53.290Z,27.50
2019-06-08T03:51:24.731Z,27.50
2019-06-08T03:53:55.093Z,27.50
2019-06-08T03:56:25.587Z,27.50
2019-06-08T03:58:56.080Z,27.50
2019-06-08T04:01:26.455Z,27.50
2019-06-08T04:03:59.898Z,27.50
2019-06-08T04:06:28.993Z,27.60
2019-06-08T04:08:59.473Z,27.50
2019-06-08T04:11:29.892Z,27.60
2019-06-08T04:14:00.357Z,27.60
2019-06-08T04:16:30.810Z,27.60
2019-06-08T04:19:01.431Z,27.60
2019-06-08T04:21:31.874Z,27.60
2019-06-08T04:24:21.380Z,27.60
2019-06-08T04:26:51.790Z,27.60
2019-06-08T04:29:22.378Z,27.60
2019-06-08T04:31:52.745Z,27.60
2019-06-08T04:34:23.073Z,27.60
2019-06-08T04:36:53.422Z,27.60
2019-06-08T04:39:23.881Z,27.60
2019-06-08T04:41:54.358Z,27.60
2019-06-08T04:44:24.651Z,27.60
2019-06-08T04:46:55.098Z,27.60
2019-06-08T04:49:25.382Z,27.60
2019-06-08T04:51:55.782Z,27.70
2019-06-08T04:54:26.132Z,27.70
2019-06-08T04:56:56.681Z,27.70
2019-06-08T04:59:27.171Z,27.70
2019-06-08T05:01:57.573Z,27.70
2019-06-08T05:04:27.897Z,27.70
2019-06-08T05:06:59.410Z,27.80
2019-06-08T05:09:29.795Z,27.80
2019-06-08T05:12:00.250Z,27.80
2019-06-08T05:14:30.528Z,27.80
2019-06-08T05:17:00.953Z,27.80
2019-06-08T05:19:31.786Z,27.80
2019-06-08T05:22:02.767Z,27.90
2019-06-08T05:24:33.101Z,27.90
2019-06-08T05:27:03.400Z,27.90
2019-06-08T05:29:33.780Z,27.90
2019-06-08T05:32:04.228Z,27.90
2019-06-08T05:34:34.686Z,28.00
2019-06-08T05:37:05.104Z,28.00
2019-06-08T05:39:35.609Z,28.00
2019-06-08T05:42:06.048Z,28.00
2019-06-08T05:44:36.487Z,28.00
2019-06-08T05:47:06.933Z,28.10
2019-06-08T05:49:37.341Z,28.10
2019-06-08T05:52:07.830Z,28.10
2019-06-08T05:54:39.667Z,28.10
2019-06-08T05:57:10.308Z,28.10
2019-06-08T05:59:42.015Z,28.20
2019-06-08T06:02:12.466Z,28.20
2019-06-08T06:04:44.305Z,28.20
2019-06-08T06:07:14.781Z,28.20
2019-06-08T06:09:45.247Z,28.30
2019-06-08T06:12:15.619Z,28.30
2019-06-08T06:14:46.877Z,28.30
2019-06-08T06:17:17.316Z,28.30
2019-06-08T06:19:47.675Z,28.40
2019-06-08T06:22:17.990Z,28.40
2019-06-08T06:24:48.214Z,28.40
2019-06-08T06:27:18.512Z,28.50
2019-06-08T06:29:49.919Z,28.50
2019-06-08T06:32:20.293Z,28.50
2019-06-08T06:34:52.021Z,28.60
2019-06-08T06:37:22.584Z,28.60
2019-06-08T06:39:53.030Z,28.60
2019-06-08T06:42:24.933Z,28.60
2019-06-08T06:44:55.526Z,28.70
2019-06-08T06:47:25.904Z,28.70
2019-06-08T06:49:56.272Z,28.70
2019-06-08T06:52:26.597Z,28.80
2019-06-08T06:54:56.989Z,28.80
2019-06-08T06:57:27.464Z,28.80
2019-06-08T06:59:57.952Z,28.80
2019-06-08T07:02:28.387Z,28.90
2019-06-08T07:04:58.866Z,28.90
2019-06-08T07:07:29.166Z,28.90
2019-06-08T07:10:11.561Z,29.00
2019-06-08T07:12:41.964Z,29.00
2019-06-08T07:15:12.188Z,29.00
2019-06-08T07:17:42.417Z,29.00
2019-06-08T07:20:12.653Z,29.10
2019-06-08T07:22:42.939Z,29.10
2019-06-08T07:25:13.276Z,29.20
2019-06-08T07:27:55.251Z,29.20
2019-06-08T07:30:25.571Z,29.20
2019-06-08T07:32:56.046Z,29.20
2019-06-08T07:35:26.465Z,29.30
2019-06-08T07:37:59.606Z,29.30
2019-06-08T07:40:29.226Z,29.30
2019-06-08T07:43:01.163Z,29.30
2019-06-08T07:45:31.515Z,29.30
2019-06-08T07:48:01.958Z,29.40
2019-06-08T07:50:32.276Z,29.40
2019-06-08T07:53:02.610Z,29.40
2019-06-08T07:55:33.010Z,29.40
2019-06-08T07:58:03.674Z,29.40
2019-06-08T08:00:34.005Z,29.40
2019-06-08T08:03:04.258Z,29.40
2019-06-08T08:05:36.257Z,29.50
2019-06-08T08:08:06.582Z,29.50
2019-06-08T08:10:38.580Z,29.50
2019-06-08T08:13:09.156Z,29.50
2019-06-08T08:15:39.473Z,29.50
2019-06-08T08:18:11.566Z,29.50
2019-06-08T08:20:43.828Z,29.50
2019-06-08T08:23:14.115Z,29.50
2019-06-08T08:25:44.624Z,29.50
2019-06-08T08:28:17.720Z,29.60
2019-06-08T08:30:50.589Z,29.60
2019-06-08T08:33:23.507Z,29.60
2019-06-08T08:35:53.867Z,29.60
2019-06-08T08:38:24.276Z,29.60
2019-06-08T08:40:56.433Z,29.60
2019-06-08T08:43:39.686Z,29.60
2019-06-08T08:46:10.127Z,29.70
2019-06-08T08:48:40.543Z,29.70
2019-06-08T08:51:11.500Z,29.70
2019-06-08T08:53:42.148Z,29.70
2019-06-08T08:56:12.626Z,29.70
2019-06-08T08:58:43.116Z,29.70
2019-06-08T09:01:20.248Z,29.70
2019-06-08T09:03:48.215Z,29.70
2019-06-08T09:06:22.042Z,29.80
2019-06-08T09:08:58.051Z,29.70
2019-06-08T09:11:28.936Z,29.70
2019-06-08T09:14:05.121Z,29.70
2019-06-08T09:16:31.633Z,29.70
2019-06-08T09:19:04.303Z,29.80
2019-06-08T09:21:38.339Z,29.80
2019-06-08T09:24:08.530Z,29.80
2019-06-08T09:26:39.140Z,29.80
2019-06-08T09:29:11.303Z,29.80
2019-06-08T09:31:42.897Z,29.80
2019-06-08T09:34:15.491Z,29.80
2019-06-08T09:36:47.802Z,29.80
2019-06-08T09:39:18.733Z,29.80
2019-06-08T09:41:49.338Z,29.80
2019-06-08T09:44:19.752Z,29.80
2019-06-08T09:46:53.589Z,29.80
2019-06-08T09:49:24.048Z,29.70
2019-06-08T09:51:55.356Z,29.80
2019-06-08T09:54:28.260Z,29.80
2019-06-08T09:57:02.076Z,29.80
2019-06-08T09:59:33.782Z,29.70
2019-06-08T10:02:09.922Z,29.80
2019-06-08T10:04:38.727Z,29.80
2019-06-08T10:07:11.957Z,29.80
2019-06-08T10:09:43.473Z,29.80
2019-06-08T10:12:18.198Z,29.80
2019-06-08T10:14:49.180Z,29.80
2019-06-08T10:17:21.004Z,29.80
2019-06-08T10:19:52.671Z,29.80
2019-06-08T10:22:25.348Z,29.80
2019-06-08T10:24:58.023Z,29.80
2019-06-08T10:27:28.401Z,29.80
2019-06-08T10:30:02.017Z,29.80
2019-06-08T10:32:31.199Z,29.80
2019-06-08T10:35:03.557Z,29.80
2019-06-08T10:37:33.821Z,29.80
2019-06-08T10:40:06.343Z,29.80
2019-06-08T10:42:39.799Z,29.80
2019-06-08T10:45:14.617Z,29.80
2019-06-08T10:47:43.194Z,29.80
2019-06-08T10:50:15.542Z,29.80
2019-06-08T10:52:49.125Z,29.80
2019-06-08T10:55:19.557Z,29.80
2019-06-08T10:57:52.766Z,29.80
2019-06-08T11:00:24.197Z,29.80
2019-06-08T11:02:55.026Z,29.80
2019-06-08T11:05:27.898Z,29.80
2019-06-08T11:07:59.288Z,29.80
2019-06-08T11:10:30.308Z,29.80
2019-06-08T11:13:05.197Z,29.80
2019-06-08T11:15:32.606Z,29.80
2019-06-08T11:18:11.825Z,29.80
2019-06-08T11:20:41.127Z,29.80
2019-06-08T11:23:12.586Z,29.80
2019-06-08T11:25:43.103Z,29.80
2019-06-08T11:28:15.081Z,29.70
2019-06-08T11:30:48.097Z,29.70
2019-06-08T11:33:18.171Z,29.70
2019-06-08T11:35:48.543Z,29.70
2019-06-08T11:38:20.223Z,29.70
2019-06-08T11:40:50.737Z,29.70
2019-06-08T11:43:22.296Z,29.70
2019-06-08T11:45:52.692Z,29.70
2019-06-08T11:48:23.132Z,29.70
2019-06-08T11:50:53.467Z,29.70
2019-06-08T11:53:23.940Z,29.70
2019-06-08T11:55:54.165Z,29.70
2019-06-08T11:58:24.549Z,29.70
2019-06-08T12:01:01.899Z,29.70
2019-06-08T12:03:32.729Z,29.70
2019-06-08T12:06:04.235Z,29.70
2019-06-08T12:08:34.716Z,29.70
2019-06-08T12:11:06.467Z,29.70
2019-06-08T12:13:37.484Z,29.70
2019-06-08T12:16:09.354Z,29.70
2019-06-08T12:18:40.368Z,29.70
2019-06-08T12:21:13.336Z,29.70
2019-06-08T12:23:44.203Z,29.70
2019-06-08T12:26:14.716Z,29.70
2019-06-08T12:28:45.195Z,29.70
2019-06-08T12:31:19.309Z,29.70
2019-06-08T12:33:48.778Z,29.70
2019-06-08T12:36:20.728Z,29.70
2019-06-08T12:38:51.337Z,29.70
2019-06-08T12:41:21.826Z,29.70
2019-06-08T12:43:52.340Z,29.70
2019-06-08T12:46:22.741Z,29.70
2019-06-08T12:48:53.256Z,29.70
2019-06-08T12:51:23.659Z,29.60
2019-06-08T12:53:54.085Z,29.70
2019-06-08T12:56:24.434Z,29.70
2019-06-08T12:58:57.762Z,29.70
2019-06-08T13:01:29.062Z,29.70
2019-06-08T13:04:00.584Z,29.70
2019-06-08T13:06:30.995Z,29.70
2019-06-08T13:09:01.627Z,29.70
2019-06-08T13:11:33.621Z,29.70
2019-06-08T13:14:07.705Z,29.70
2019-06-08T13:16:38.228Z,29.70
2019-06-08T13:19:10.443Z,29.70
2019-06-08T13:21:41.856Z,29.70
2019-06-08T13:24:13.172Z,29.70
2019-06-08T13:26:43.632Z,29.70
2019-06-08T13:29:14.074Z,29.70
2019-06-08T13:31:44.460Z,29.70
2019-06-08T13:34:17.433Z,29.70
2019-06-08T13:36:48.510Z,29.70
2019-06-08T13:39:21.223Z,29.70
2019-06-08T13:42:11.294Z,29.70
2019-06-08T13:44:41.859Z,29.70
2019-06-08T13:47:12.555Z,29.60
2019-06-08T13:49:43.502Z,29.70
2019-06-08T13:52:13.852Z,29.70
2019-06-08T13:54:45.391Z,29.70
2019-06-08T13:57:17.704Z,29.70
2019-06-08T13:59:48.622Z,29.70
2019-06-08T14:02:25.024Z,29.70
2019-06-08T14:04:51.885Z,29.60
2019-06-08T14:07:26.864Z,29.60
2019-06-08T14:09:54.413Z,29.60
2019-06-08T14:12:28.218Z,29.60
2019-06-08T14:14:58.417Z,29.60
2019-06-08T14:17:29.070Z,29.60
2019-06-08T14:19:59.561Z,29.60
2019-06-08T14:22:30.427Z,29.60
2019-06-08T14:25:01.171Z,29.50
2019-06-08T14:27:33.449Z,29.50
2019-06-08T14:30:03.662Z,29.60
2019-06-08T14:32:34.443Z,29.50
2019-06-08T14:35:04.994Z,29.50
2019-06-08T14:37:35.359Z,29.50
2019-06-08T14:40:08.197Z,29.50
2019-06-08T14:42:38.543Z,29.50
2019-06-08T14:45:10.966Z,29.50
2019-06-08T14:47:41.572Z,29.50
2019-06-08T14:50:31.334Z,29.50
2019-06-08T14:53:01.798Z,29.50
2019-06-08T14:55:34.282Z,29.50
2019-06-08T14:58:04.402Z,29.50
2019-06-08T15:00:34.834Z,29.50
2019-06-08T15:03:07.513Z,29.50
2019-06-08T15:05:37.463Z,29.50
2019-06-08T15:08:08.383Z,29.50
2019-06-08T15:10:38.913Z,29.50
2019-06-08T15:13:09.343Z,29.50
2019-06-08T15:15:39.649Z,29.50
2019-06-08T15:18:11.129Z,29.50
2019-06-08T15:20:41.874Z,29.50
2019-06-08T15:23:12.253Z,29.40
2019-06-08T15:25:43.604Z,29.40
2019-06-08T15:28:14.086Z,29.50
2019-06-08T15:30:44.514Z,29.50
2019-06-08T15:33:14.915Z,29.40
2019-06-08T15:35:47.441Z,29.40
2019-06-08T15:38:17.507Z,29.40
2019-06-08T15:40:49.409Z,29.40
2019-06-08T15:43:19.998Z,29.50
2019-06-08T15:45:51.369Z,29.40
2019-06-08T15:48:22.184Z,29.40
2019-06-08T15:50:52.565Z,29.40
2019-06-08T15:53:24.161Z,29.40
2019-06-08T15:55:54.776Z,29.40
2019-06-08T15:58:25.289Z,29.40
2019-06-08T16:00:55.895Z,29.40
2019-06-08T16:03:27.433Z,29.40
2019-06-08T16:05:58.913Z,29.40
2019-06-08T16:08:30.244Z,29.40
2019-06-08T16:11:00.847Z,29.40
2019-06-08T16:13:32.492Z,29.40
2019-06-08T16:16:03.113Z,29.40
2019-06-08T16:18:33.634Z,29.40
2019-06-08T16:21:04.158Z,29.40
2019-06-08T16:23:35.686Z,29.40
2019-06-08T16:26:06.538Z,29.40
2019-06-08T16:28:36.901Z,29.40
2019-06-08T16:31:07.379Z,29.40
2019-06-08T16:33:37.833Z,29.40
2019-06-08T16:36:09.277Z,29.40
2019-06-08T16:38:39.671Z,29.40
2019-06-08T16:41:10.133Z,29.40
2019-06-08T16:43:40.488Z,29.40
2019-06-08T16:46:10.983Z,29.40
2019-06-08T16:48:41.352Z,29.40
2019-06-08T16:51:11.754Z,29.40
2019-06-08T16:53:42.228Z,29.40
2019-06-08T16:56:12.671Z,29.30
2019-06-08T16:58:43.118Z,29.30
2019-06-08T17:01:13.450Z,29.30
2019-06-08T17:03:43.872Z,29.30
2019-06-08T17:06:14.320Z,29.30
2019-06-08T17:08:44.798Z,29.30
2019-06-08T17:11:15.216Z,29.40
2019-06-08T17:13:45.582Z,29.30
2019-06-08T17:16:16.072Z,29.30
2019-06-08T17:18:46.629Z,29.30
2019-06-08T17:21:17.065Z,29.30
2019-06-08T17:23:47.533Z,29.30
2019-06-08T17:26:17.873Z,29.30
2019-06-08T17:28:48.357Z,29.30
2019-06-08T17:31:18.813Z,29.30
2019-06-08T17:33:49.342Z,29.30
2019-06-08T17:36:19.696Z,29.30
2019-06-08T17:38:50.188Z,29.30
2019-06-08T17:41:20.652Z,29.30
2019-06-08T17:43:51.520Z,29.30
2019-06-08T17:46:21.962Z,29.30
2019-06-08T17:48:52.371Z,29.30
2019-06-08T17:51:22.895Z,29.30
2019-06-08T17:53:53.524Z,29.30
2019-06-08T17:56:24.073Z,29.30
2019-06-08T17:58:54.489Z,29.30
2019-06-08T18:01:25.017Z,29.30
2019-06-08T18:03:57.480Z,29.30
2019-06-08T18:06:27.482Z,29.20
2019-06-08T18:08:58.717Z,29.20
2019-06-08T18:11:33.723Z,29.20
2019-06-08T18:14:04.626Z,29.20
2019-06-08T18:16:37.561Z,29.20
2019-06-08T18:19:08.054Z,29.20
2019-06-08T18:21:40.382Z,29.20
2019-06-08T18:24:11.049Z,29.20
2019-06-08T18:26:42.132Z,29.20
2019-06-08T18:29:13.712Z,29.20
2019-06-08T18:31:45.394Z,29.20
2019-06-08T18:34:37.286Z,29.20
2019-06-08T18:37:08.520Z,29.20
2019-06-08T18:39:41.728Z,29.20
2019-06-08T18:42:10.907Z,29.20
2019-06-08T18:44:42.871Z,29.20
2019-06-08T18:47:13.807Z,29.20
2019-06-08T18:49:45.564Z,29.20
2019-06-08T18:52:17.602Z,29.20
2019-06-08T18:54:49.677Z,29.20
2019-06-08T18:57:20.505Z,29.20
2019-06-08T18:59:53.131Z,29.20
2019-06-08T19:02:25.751Z,29.20
2019-06-08T19:04:57.222Z,29.20
2019-06-08T19:07:39.172Z,29.10
2019-06-08T19:10:09.568Z,29.10
2019-06-08T19:12:41.477Z,29.10
2019-06-08T19:15:11.825Z,29.10
2019-06-08T19:17:48.219Z,29.10
2019-06-08T19:20:14.137Z,29.10
2019-06-08T19:22:48.592Z,29.10
2019-06-08T19:25:17.587Z,29.10
2019-06-08T19:27:53.147Z,29.10
2019-06-08T19:30:20.361Z,29.10
2019-06-08T19:32:52.605Z,29.10
2019-06-08T19:35:22.974Z,29.00
2019-06-08T19:37:53.987Z,29.10
2019-06-08T19:40:27.202Z,29.00
2019-06-08T19:43:01.292Z,29.00
2019-06-08T19:45:29.639Z,29.00
2019-06-08T19:47:59.958Z,29.00
2019-06-08T19:50:30.241Z,29.00
2019-06-08T19:53:00.525Z,29.00
2019-06-08T19:55:30.872Z,29.00
2019-06-08T19:58:01.167Z,29.00
2019-06-08T20:00:44.253Z,29.00
2019-06-08T20:03:17.649Z,29.00
2019-06-08T20:05:50.586Z,29.00
2019-06-08T20:08:19.691Z,29.00
2019-06-08T20:10:50.823Z,29.00
2019-06-08T20:13:21.420Z,29.00
2019-06-08T20:15:57.176Z,28.90
2019-06-08T20:18:23.762Z,29.00
2019-06-08T20:20:54.509Z,28.90
2019-06-08T20:23:27.463Z,29.00
2019-06-08T20:25:57.470Z,28.90
2019-06-08T20:28:29.234Z,28.90
2019-06-08T20:31:00.193Z,28.90
2019-06-08T20:33:30.471Z,28.90
2019-06-08T20:36:00.880Z,28.90
2019-06-08T20:38:38.277Z,28.90
2019-06-08T20:41:03.568Z,28.90
2019-06-08T20:43:34.004Z,28.90
2019-06-08T20:46:04.401Z,28.90
2019-06-08T20:48:34.795Z,28.90
2019-06-08T20:51:07.614Z,28.90
2019-06-08T20:53:38.779Z,28.90
2019-06-08T20:56:09.443Z,28.90
2019-06-08T20:58:39.823Z,28.90
2019-06-08T21:01:10.173Z,28.80
2019-06-08T21:03:40.514Z,28.80
2019-06-08T21:06:10.922Z,28.80
2019-06-08T21:08:41.178Z,28.80
2019-06-08T21:11:11.554Z,28.80
2019-06-08T21:13:41.922Z,28.80
2019-06-08T21:16:12.278Z,28.80
2019-06-08T21:18:42.663Z,28.80
2019-06-08T21:21:13.092Z,28.80
2019-06-08T21:23:43.589Z,28.80
2019-06-08T21:26:13.935Z,28.80
2019-06-08T21:28:47.140Z,28.70
2019-06-08T21:31:17.755Z,28.80
2019-06-08T21:33:50.942Z,28.80
2019-06-08T21:36:20.099Z,28.80
2019-06-08T21:38:53.448Z,28.80
2019-06-08T21:41:22.466Z,28.80
2019-06-08T21:43:54.774Z,28.80
2019-06-08T21:46:27.386Z,28.80
2019-06-08T21:49:00.262Z,28.70
2019-06-08T21:51:28.900Z,28.80
2019-06-08T21:54:00.466Z,28.70
2019-06-08T21:56:30.871Z,28.70
2019-06-08T21:59:01.232Z,28.70
2019-06-08T22:01:31.871Z,28.70
2019-06-08T22:04:02.461Z,28.70
2019-06-08T22:06:32.851Z,28.70
2019-06-08T22:09:03.572Z,28.70
2019-06-08T22:11:37.540Z,28.70
2019-06-08T22:14:08.744Z,28.70
2019-06-08T22:16:39.237Z,28.70
2019-06-08T22:19:09.582Z,28.60
2019-06-08T22:21:39.895Z,28.70
2019-06-08T22:24:10.277Z,28.60
2019-06-08T22:26:40.668Z,28.60
2019-06-08T22:29:11.081Z,28.60
2019-06-08T22:31:42.574Z,28.60
2019-06-08T22:34:30.727Z,28.60
2019-06-08T22:40:01.063Z,28.60
2019-06-08T22:42:32.694Z,28.60
2019-06-08T22:45:03.913Z,28.60
2019-06-08T22:47:34.442Z,28.60
2019-06-08T22:50:07.928Z,28.60
2019-06-08T22:52:38.459Z,28.60
2019-06-08T22:55:10.914Z,28.60
2019-06-08T22:57:40.843Z,28.50
2019-06-08T23:00:16.569Z,28.50
2019-06-08T23:02:43.423Z,28.50
2019-06-08T23:05:13.905Z,28.50
2019-06-08T23:07:44.186Z,28.50
2019-06-08T23:10:14.469Z,28.50
2019-06-08T23:13:04.368Z,28.50
2019-06-08T23:15:35.868Z,28.50
2019-06-08T23:18:09.142Z,28.50
2019-06-08T23:20:38.071Z,28.50
2019-06-08T23:23:09.021Z,28.50
2019-06-08T23:25:39.498Z,28.40
2019-06-08T23:28:10.036Z,28.50
2019-06-08T23:30:41.502Z,28.40
2019-06-08T23:33:11.983Z,28.40
2019-06-08T23:36:14.508Z,28.40
2019-06-08T23:38:14.365Z,28.40
2019-06-08T23:40:47.240Z,28.40
2019-06-08T23:43:18.128Z,28.40
2019-06-08T23:45:48.579Z,28.40
2019-06-08T23:48:18.892Z,28.40
2019-06-08T23:50:49.349Z,28.40
2019-06-08T23:53:19.773Z,28.30
2019-06-08T23:55:50.175Z,28.30
2019-06-08T23:58:20.603Z,28.40
